createdAt,value
2022-08-19T00:00:53.837Z,9.10
2022-08-19T00:01:53.915Z,8.40
2022-08-19T00:02:54.098Z,8.50
2022-08-19T00:03:53.816Z,8.40
2022-08-19T00:04:53.935Z,9.20
2022-08-19T00:05:53.764Z,8.90
2022-08-19T00:06:53.754Z,9.20
2022-08-19T00:07:53.750Z,10.00
2022-08-19T00:08:53.758Z,10.30
2022-08-19T00:09:53.746Z,9.80
2022-08-19T00:10:53.732Z,10.80
2022-08-19T00:11:53.727Z,9.50
2022-08-19T00:12:53.713Z,10.70
2022-08-19T00:13:53.673Z,10.40
2022-08-19T00:14:53.705Z,10.80
2022-08-19T00:15:53.705Z,10.90
2022-08-19T00:16:53.648Z,10.30
2022-08-19T00:17:53.632Z,13.30
2022-08-19T00:18:53.619Z,13.00
2022-08-19T00:19:53.621Z,12.30
2022-08-19T00:20:53.623Z,11.50
2022-08-19T00:21:53.612Z,11.40
2022-08-19T00:22:53.752Z,11.30
2022-08-19T00:23:53.579Z,12.10
2022-08-19T00:24:53.555Z,13.00
2022-08-19T00:25:53.585Z,11.60
2022-08-19T00:26:53.539Z,12.70
2022-08-19T00:27:53.530Z,12.00
2022-08-19T00:28:53.525Z,12.70
2022-08-19T00:29:53.539Z,14.60
2022-08-19T00:30:53.486Z,13.00
2022-08-19T00:31:53.511Z,13.70
2022-08-19T00:32:53.670Z,13.50
2022-08-19T00:33:53.453Z,12.10
2022-08-19T00:34:53.449Z,12.60
2022-08-19T00:35:53.929Z,13.50
2022-08-19T00:36:53.442Z,13.00
2022-08-19T00:37:53.431Z,13.70
2022-08-19T00:38:53.395Z,13.10
2022-08-19T00:39:53.418Z,13.60
2022-08-19T00:40:53.383Z,14.70
2022-08-19T00:41:53.396Z,13.20
2022-08-19T00:42:53.565Z,14.20
2022-08-19T00:43:53.350Z,13.30
2022-08-19T00:44:53.338Z,14.10
2022-08-19T00:45:53.332Z,12.70
2022-08-19T00:46:55.664Z,13.60
2022-08-19T00:47:53.309Z,13.00
2022-08-19T00:48:53.294Z,13.50
2022-08-19T00:49:53.301Z,12.70
2022-08-19T00:50:53.271Z,12.90
2022-08-19T00:51:53.252Z,13.20
2022-08-19T00:52:53.460Z,12.90
2022-08-19T00:53:53.247Z,12.10
2022-08-19T00:54:53.224Z,12.20
2022-08-19T00:55:53.221Z,12.60
2022-08-19T00:56:53.204Z,12.60
2022-08-19T00:57:53.209Z,11.60
2022-08-19T00:58:53.196Z,13.40
2022-08-19T01:00:00.343Z,12.60
2022-08-19T01:00:53.170Z,13.50
2022-08-19T01:01:53.172Z,12.70
2022-08-19T01:02:53.364Z,12.60
2022-08-19T01:03:57.485Z,13.00
2022-08-19T01:04:53.119Z,12.10
2022-08-19T01:05:53.100Z,11.70
2022-08-19T01:06:53.100Z,12.00
2022-08-19T01:07:53.078Z,12.60
2022-08-19T01:08:53.096Z,13.20
2022-08-19T01:09:53.075Z,12.70
2022-08-19T01:10:53.057Z,12.80
2022-08-19T01:11:53.021Z,13.20
2022-08-19T01:12:53.193Z,11.90
2022-08-19T01:13:53.060Z,12.70
2022-08-19T01:14:53.004Z,12.50
2022-08-19T01:15:52.984Z,11.50
2022-08-19T01:16:52.970Z,12.80
2022-08-19T01:17:52.972Z,11.80
2022-08-19T01:18:52.982Z,10.90
2022-08-19T01:19:52.966Z,11.60
2022-08-19T01:20:52.925Z,11.20
2022-08-19T01:21:52.934Z,12.20
2022-08-19T01:22:53.151Z,12.70
2022-08-19T01:23:52.933Z,11.00
2022-08-19T01:24:52.917Z,12.50
2022-08-19T01:25:52.866Z,11.30
2022-08-19T01:26:52.884Z,12.10
2022-08-19T01:27:53.563Z,12.20
2022-08-19T01:28:52.844Z,13.00
2022-08-19T01:29:52.848Z,12.10
2022-08-19T01:30:52.811Z,13.10
2022-08-19T01:31:52.808Z,11.90
2022-08-19T01:32:52.926Z,13.40
2022-08-19T01:33:52.780Z,13.30
2022-08-19T01:34:52.793Z,12.80
2022-08-19T01:35:52.773Z,14.30
2022-08-19T01:36:52.746Z,14.10
2022-08-19T01:37:52.744Z,13.60
2022-08-19T01:38:52.728Z,13.60
2022-08-19T01:39:52.804Z,12.90
2022-08-19T01:40:52.704Z,12.90
2022-08-19T01:41:52.718Z,12.70
2022-08-19T01:42:52.790Z,14.40
2022-08-19T01:44:13.711Z,13.20
2022-08-19T01:44:52.657Z,13.30
2022-08-19T01:45:52.675Z,13.40
2022-08-19T01:46:52.633Z,14.30
2022-08-19T01:48:01.908Z,13.60
2022-08-19T01:48:52.627Z,12.30
2022-08-19T01:49:52.629Z,13.40
2022-08-19T01:50:52.631Z,14.40
2022-08-19T01:51:52.595Z,13.30
2022-08-19T01:53:02.274Z,14.50
2022-08-19T01:53:52.567Z,14.50
2022-08-19T01:54:52.540Z,12.90
2022-08-19T01:55:52.614Z,12.80
2022-08-19T01:56:52.551Z,15.60
2022-08-19T01:57:52.518Z,14.70
2022-08-19T01:58:52.495Z,14.60
2022-08-19T01:59:52.522Z,15.80
2022-08-19T02:00:52.482Z,14.50
2022-08-19T02:01:52.589Z,16.30
2022-08-19T02:02:52.638Z,14.90
2022-08-19T02:03:52.448Z,14.00
2022-08-19T02:04:52.445Z,14.80
2022-08-19T02:05:52.425Z,14.40
2022-08-19T02:06:52.417Z,15.40
2022-08-19T02:07:52.439Z,14.40
2022-08-19T02:08:52.393Z,14.20
2022-08-19T02:09:52.420Z,15.00
2022-08-19T02:10:52.392Z,14.50
2022-08-19T02:11:52.360Z,14.90
2022-08-19T02:12:52.555Z,13.50
2022-08-19T02:13:52.346Z,14.40
2022-08-19T02:14:52.321Z,13.60
2022-08-19T02:15:52.316Z,14.10
2022-08-19T02:16:52.304Z,13.90
2022-08-19T02:17:52.292Z,13.70
2022-08-19T02:18:52.296Z,13.70
2022-08-19T02:19:52.273Z,13.40
2022-08-19T02:20:52.262Z,14.50
2022-08-19T02:21:52.258Z,14.00
2022-08-19T02:22:52.354Z,13.30
2022-08-19T02:23:52.265Z,13.80
2022-08-19T02:24:52.234Z,14.60
2022-08-19T02:25:52.199Z,15.30
2022-08-19T02:26:52.185Z,13.90
2022-08-19T02:27:52.198Z,14.70
2022-08-19T02:28:52.161Z,13.70
2022-08-19T02:29:52.181Z,14.10
2022-08-19T02:30:52.139Z,14.00
2022-08-19T02:31:52.133Z,15.30
2022-08-19T02:32:52.117Z,14.90
2022-08-19T02:33:52.124Z,15.10
2022-08-19T02:34:52.135Z,14.00
2022-08-19T02:35:52.087Z,14.50
2022-08-19T02:36:52.390Z,14.70
2022-08-19T02:37:52.066Z,15.40
2022-08-19T02:38:54.741Z,13.80
2022-08-19T02:39:52.098Z,14.90
2022-08-19T02:40:52.091Z,15.00
2022-08-19T02:41:52.017Z,14.00
2022-08-19T02:42:52.091Z,13.40
2022-08-19T02:44:30.529Z,14.50
2022-08-19T02:44:51.998Z,13.80
2022-08-19T02:45:51.994Z,13.80
2022-08-19T02:46:52.815Z,14.00
2022-08-19T02:47:51.967Z,13.70
2022-08-19T02:48:51.949Z,14.70
2022-08-19T02:49:51.945Z,13.70
2022-08-19T02:50:53.598Z,13.70
2022-08-19T02:51:51.903Z,13.90
2022-08-19T02:52:52.137Z,14.50
2022-08-19T02:53:51.887Z,14.70
2022-08-19T02:54:51.870Z,15.10
2022-08-19T02:55:51.863Z,13.80
2022-08-19T02:56:51.883Z,14.00
2022-08-19T02:57:51.856Z,14.40
2022-08-19T02:58:51.829Z,14.90
2022-08-19T02:59:51.845Z,15.30
2022-08-19T03:00:51.874Z,15.30
2022-08-19T03:01:51.817Z,16.10
2022-08-19T03:02:51.848Z,15.60
2022-08-19T03:03:51.769Z,15.20
2022-08-19T03:04:51.769Z,15.10
2022-08-19T03:05:56.248Z,15.20
2022-08-19T03:06:51.762Z,15.20
2022-08-19T03:07:51.750Z,16.40
2022-08-19T03:08:51.738Z,15.00
2022-08-19T03:09:51.716Z,15.60
2022-08-19T03:10:51.700Z,14.70
2022-08-19T03:11:52.657Z,14.90
2022-08-19T03:12:51.892Z,15.10
2022-08-19T03:13:51.674Z,14.70
2022-08-19T03:14:51.651Z,15.10
2022-08-19T03:15:51.653Z,14.70
2022-08-19T03:16:51.640Z,14.50
2022-08-19T03:17:51.614Z,15.70
2022-08-19T03:18:51.638Z,15.00
2022-08-19T03:19:51.594Z,15.10
2022-08-19T03:20:51.607Z,16.10
2022-08-19T03:21:51.583Z,17.00
2022-08-19T03:22:51.730Z,15.30
2022-08-19T03:23:51.580Z,15.10
2022-08-19T03:24:51.559Z,15.80
2022-08-19T03:26:03.227Z,16.20
2022-08-19T03:26:51.524Z,15.50
2022-08-19T03:27:51.515Z,15.90
2022-08-19T03:28:58.234Z,16.00
2022-08-19T03:29:51.493Z,17.10
2022-08-19T03:30:51.497Z,18.10
2022-08-19T03:31:51.966Z,17.60
2022-08-19T03:32:57.242Z,18.10
2022-08-19T03:33:51.484Z,21.30
2022-08-19T03:34:51.431Z,21.20
2022-08-19T03:35:51.420Z,21.00
2022-08-19T03:36:51.440Z,21.10
2022-08-19T03:37:51.398Z,19.00
2022-08-19T03:38:51.386Z,20.80
2022-08-19T03:39:51.466Z,19.00
2022-08-19T03:40:51.363Z,18.10
2022-08-19T03:42:31.736Z,19.90
2022-08-19T03:42:51.344Z,19.40
2022-08-19T03:43:51.332Z,18.50
2022-08-19T03:44:51.334Z,18.90
2022-08-19T03:45:51.317Z,21.40
2022-08-19T03:46:51.308Z,20.40
2022-08-19T03:47:51.287Z,20.10
2022-08-19T03:48:51.279Z,18.70
2022-08-19T03:49:51.311Z,21.10
2022-08-19T03:50:51.262Z,20.90
2022-08-19T03:51:51.262Z,19.40
2022-08-19T03:52:51.399Z,20.60
2022-08-19T03:53:51.255Z,19.80
2022-08-19T03:54:51.209Z,21.50
2022-08-19T03:55:51.232Z,21.10
2022-08-19T03:56:51.182Z,20.70
2022-08-19T03:57:51.187Z,20.90
2022-08-19T03:58:51.155Z,22.10
2022-08-19T03:59:51.151Z,21.50
2022-08-19T04:00:51.172Z,20.30
2022-08-19T04:01:51.125Z,20.80
2022-08-19T04:02:58.260Z,21.20
2022-08-19T04:03:51.126Z,22.40
2022-08-19T04:04:51.095Z,22.10
2022-08-19T04:05:51.117Z,23.40
2022-08-19T04:06:51.074Z,22.40
2022-08-19T04:07:51.057Z,22.60
2022-08-19T04:08:51.048Z,22.40
2022-08-19T04:09:51.038Z,21.50
2022-08-19T04:10:51.024Z,22.80
2022-08-19T04:11:51.035Z,21.60
2022-08-19T04:12:51.074Z,22.70
2022-08-19T04:13:51.008Z,20.90
2022-08-19T04:14:50.979Z,22.70
2022-08-19T04:15:51.024Z,20.60
2022-08-19T04:16:50.987Z,21.10
2022-08-19T04:17:50.960Z,22.40
2022-08-19T04:18:50.943Z,23.30
2022-08-19T04:19:50.936Z,23.20
2022-08-19T04:20:50.934Z,22.60
2022-08-19T04:21:50.902Z,20.80
2022-08-19T04:22:50.904Z,22.10
2022-08-19T04:23:50.889Z,21.30
2022-08-19T04:24:50.888Z,22.30
2022-08-19T04:25:50.880Z,21.30
2022-08-19T04:26:50.865Z,22.00
2022-08-19T04:27:50.844Z,21.60
2022-08-19T04:28:50.856Z,21.30
2022-08-19T04:29:50.821Z,20.60
2022-08-19T04:30:50.836Z,20.90
2022-08-19T04:31:50.805Z,20.60
2022-08-19T04:32:50.789Z,22.00
2022-08-19T04:33:50.783Z,21.60
2022-08-19T04:35:01.278Z,22.30
2022-08-19T04:35:50.803Z,21.30
2022-08-19T04:36:50.740Z,19.50
2022-08-19T04:37:50.762Z,20.60
2022-08-19T04:38:50.719Z,21.80
2022-08-19T04:39:50.743Z,20.40
2022-08-19T04:40:50.694Z,20.40
2022-08-19T04:41:50.743Z,20.30
2022-08-19T04:42:50.677Z,20.70
2022-08-19T04:43:50.669Z,21.60
2022-08-19T04:44:50.653Z,21.10
2022-08-19T04:45:50.664Z,22.00
2022-08-19T04:46:51.257Z,22.70
2022-08-19T04:47:58.262Z,23.50
2022-08-19T04:48:50.615Z,25.10
2022-08-19T04:49:50.614Z,22.90
2022-08-19T04:50:50.604Z,23.70
2022-08-19T04:51:50.585Z,22.90
2022-08-19T04:52:50.565Z,24.50
2022-08-19T04:53:50.555Z,23.80
2022-08-19T04:54:50.552Z,22.00
2022-08-19T04:55:50.584Z,24.00
2022-08-19T04:56:50.549Z,23.50
2022-08-19T04:57:50.505Z,24.10
2022-08-19T04:58:50.497Z,25.20
2022-08-19T04:59:50.485Z,23.50
2022-08-19T05:00:50.547Z,24.30
2022-08-19T05:01:50.476Z,23.80
2022-08-19T05:02:50.469Z,24.80
2022-08-19T05:03:50.454Z,28.30
2022-08-19T05:04:50.431Z,24.90
2022-08-19T05:05:50.444Z,25.60
2022-08-19T05:06:50.411Z,26.30
2022-08-19T05:07:50.397Z,25.60
2022-08-19T05:08:50.388Z,25.80
2022-08-19T05:09:57.848Z,24.80
2022-08-19T05:10:50.397Z,23.40
2022-08-19T05:11:50.359Z,26.20
2022-08-19T05:12:50.342Z,24.40
2022-08-19T05:13:50.338Z,24.70
2022-08-19T05:14:50.319Z,23.80
2022-08-19T05:15:50.333Z,23.40
2022-08-19T05:16:55.917Z,21.70
2022-08-19T05:17:50.301Z,24.00
2022-08-19T05:18:50.285Z,22.20
2022-08-19T05:19:50.268Z,23.00
2022-08-19T05:20:50.276Z,21.90
2022-08-19T05:21:50.245Z,21.40
2022-08-19T05:22:50.311Z,21.20
2022-08-19T05:23:50.231Z,24.10
2022-08-19T05:25:11.248Z,22.30
2022-08-19T05:25:50.244Z,23.90
2022-08-19T05:26:50.191Z,21.60
2022-08-19T05:27:50.190Z,25.20
2022-08-19T05:28:53.045Z,22.10
2022-08-19T05:29:50.179Z,24.40
2022-08-19T05:30:50.160Z,21.70
2022-08-19T05:31:50.135Z,22.00
2022-08-19T05:32:50.153Z,23.50
2022-08-19T05:33:50.111Z,21.10
2022-08-19T05:34:50.101Z,23.40
2022-08-19T05:35:50.118Z,22.50
2022-08-19T05:36:50.077Z,21.40
2022-08-19T05:37:50.101Z,23.00
2022-08-19T05:38:50.066Z,21.80
2022-08-19T05:39:51.691Z,20.30
2022-08-19T05:40:50.089Z,24.10
2022-08-19T05:41:50.026Z,22.60
2022-08-19T05:42:55.034Z,22.40
2022-08-19T05:43:50.042Z,21.40
2022-08-19T05:44:50.034Z,24.30
2022-08-19T05:45:49.980Z,22.60
2022-08-19T05:46:49.995Z,23.20
2022-08-19T05:47:49.972Z,27.10
2022-08-19T05:48:49.949Z,25.00
2022-08-19T05:49:49.964Z,27.10
2022-08-19T05:50:49.960Z,24.10
2022-08-19T05:51:49.919Z,25.00
2022-08-19T05:52:50.176Z,22.10
2022-08-19T05:53:49.888Z,25.10
2022-08-19T05:54:51.384Z,24.30
2022-08-19T05:55:49.892Z,29.80
2022-08-19T05:56:49.932Z,30.70
2022-08-19T05:57:49.888Z,29.10
2022-08-19T05:58:49.834Z,28.90
2022-08-19T05:59:53.307Z,29.50
2022-08-19T06:00:49.817Z,32.90
2022-08-19T06:01:49.826Z,32.70
2022-08-19T06:02:49.917Z,33.90
2022-08-19T06:03:49.774Z,35.20
2022-08-19T06:04:49.768Z,36.50
2022-08-19T06:05:51.951Z,30.10
2022-08-19T06:06:49.745Z,31.40
2022-08-19T06:07:49.780Z,34.10
2022-08-19T06:08:49.732Z,35.60
2022-08-19T06:09:59.193Z,36.60
2022-08-19T06:10:49.722Z,33.00
2022-08-19T06:11:51.854Z,35.10
2022-08-19T06:12:49.677Z,35.60
2022-08-19T06:13:49.678Z,32.70
2022-08-19T06:15:00.530Z,29.70
2022-08-19T06:15:49.704Z,28.80
2022-08-19T06:16:49.637Z,31.20
2022-08-19T06:17:49.725Z,33.00
2022-08-19T06:18:49.611Z,27.60
2022-08-19T06:19:49.592Z,28.90
2022-08-19T06:20:55.787Z,28.20
2022-08-19T06:21:49.615Z,31.10
2022-08-19T06:22:49.564Z,28.50
2022-08-19T06:23:49.598Z,29.50
2022-08-19T06:24:49.594Z,29.20
2022-08-19T06:25:49.594Z,30.60
2022-08-19T06:26:49.522Z,28.40
2022-08-19T06:28:13.463Z,32.20
2022-08-19T06:28:49.542Z,33.00
2022-08-19T06:29:49.485Z,34.50
2022-08-19T06:30:49.527Z,32.10
2022-08-19T06:31:49.459Z,33.30
2022-08-19T06:32:49.454Z,32.00
2022-08-19T06:33:50.243Z,30.80
2022-08-19T06:34:49.431Z,28.70
2022-08-19T06:35:49.485Z,31.70
2022-08-19T06:36:49.430Z,28.80
2022-08-19T06:37:49.408Z,30.00
2022-08-19T06:38:49.438Z,30.50
2022-08-19T06:39:49.410Z,30.40
2022-08-19T06:40:49.465Z,30.50
2022-08-19T06:41:52.462Z,30.20
2022-08-19T06:42:54.834Z,26.30
2022-08-19T06:43:49.724Z,30.80
2022-08-19T06:44:49.361Z,29.60
2022-08-19T06:45:49.377Z,28.10
2022-08-19T06:46:54.882Z,25.30
2022-08-19T06:47:49.447Z,27.00
2022-08-19T06:48:49.307Z,27.00
2022-08-19T06:49:49.284Z,27.90
2022-08-19T06:50:49.258Z,28.30
2022-08-19T06:51:49.439Z,28.30
2022-08-19T06:52:49.338Z,27.80
2022-08-19T06:54:56.141Z,28.30
2022-08-19T06:55:49.228Z,26.50
2022-08-19T06:56:49.186Z,26.10
2022-08-19T06:57:49.417Z,25.50
2022-08-19T06:58:49.172Z,26.90
2022-08-19T06:59:49.154Z,26.10
2022-08-19T07:00:49.169Z,27.00
2022-08-19T07:01:49.139Z,25.90
2022-08-19T07:02:53.255Z,25.80
2022-08-19T07:03:49.124Z,26.30
2022-08-19T07:04:52.565Z,26.80
2022-08-19T07:05:49.130Z,26.90
2022-08-19T07:06:54.896Z,26.40
2022-08-19T07:07:49.073Z,26.20
2022-08-19T07:08:49.068Z,26.90
2022-08-19T07:09:57.921Z,27.60
2022-08-19T07:10:49.084Z,26.10
2022-08-19T07:11:49.075Z,25.80
2022-08-19T07:12:49.147Z,25.00
2022-08-19T07:13:49.021Z,25.50
2022-08-19T07:14:49.026Z,25.60
2022-08-19T07:15:49.014Z,26.60
2022-08-19T07:16:49.030Z,25.50
2022-08-19T07:17:52.418Z,24.60
2022-08-19T07:18:48.957Z,24.80
2022-08-19T07:19:48.997Z,25.00
2022-08-19T07:20:48.946Z,24.50
2022-08-19T07:21:48.917Z,22.00
2022-08-19T07:22:48.955Z,22.10
2022-08-19T07:23:48.900Z,22.20
2022-08-19T07:24:51.292Z,23.50
2022-08-19T07:25:52.964Z,23.20
2022-08-19T07:26:51.868Z,23.30
2022-08-19T07:27:48.865Z,22.10
2022-08-19T07:28:52.868Z,21.90
2022-08-19T07:29:48.881Z,22.70
2022-08-19T07:30:48.850Z,22.30
2022-08-19T07:31:48.813Z,20.60
2022-08-19T07:32:48.789Z,21.30
2022-08-19T07:33:48.792Z,21.20
2022-08-19T07:34:48.772Z,20.00
2022-08-19T07:35:48.778Z,21.30
2022-08-19T07:36:48.742Z,20.20
2022-08-19T07:37:48.736Z,21.00
2022-08-19T07:38:48.728Z,19.80
2022-08-19T07:39:48.781Z,20.20
2022-08-19T07:40:48.710Z,20.30
2022-08-19T07:41:48.709Z,20.10
2022-08-19T07:42:48.682Z,17.10
2022-08-19T07:43:48.677Z,20.40
2022-08-19T07:44:50.769Z,21.20
2022-08-19T07:45:48.679Z,19.30
2022-08-19T07:46:50.346Z,20.90
2022-08-19T07:47:51.209Z,21.10
2022-08-19T07:48:48.648Z,21.80
2022-08-19T07:49:48.591Z,21.00
2022-08-19T07:50:48.607Z,20.00
2022-08-19T07:51:48.578Z,20.80
2022-08-19T07:52:48.984Z,21.10
2022-08-19T07:53:48.547Z,18.90
2022-08-19T07:54:48.542Z,21.60
2022-08-19T07:55:48.539Z,22.00
2022-08-19T07:56:48.584Z,18.60
2022-08-19T07:57:48.570Z,18.00
2022-08-19T07:58:48.515Z,19.20
2022-08-19T07:59:48.482Z,19.40
2022-08-19T08:00:48.504Z,18.70
2022-08-19T08:01:48.525Z,18.20
2022-08-19T08:02:48.448Z,19.00
2022-08-19T08:03:48.437Z,18.40
2022-08-19T08:04:48.466Z,18.40
2022-08-19T08:05:48.451Z,19.40
2022-08-19T08:06:48.412Z,18.80
2022-08-19T08:07:48.395Z,17.70
2022-08-19T08:08:48.599Z,16.60
2022-08-19T08:09:49.770Z,17.40
2022-08-19T08:10:53.074Z,17.50
2022-08-19T08:11:48.383Z,17.30
2022-08-19T08:13:08.589Z,15.90
2022-08-19T08:13:48.346Z,16.80
2022-08-19T08:14:48.329Z,17.00
2022-08-19T08:15:48.325Z,14.90
2022-08-19T08:16:48.298Z,15.20
2022-08-19T08:17:51.442Z,13.40
2022-08-19T08:18:50.555Z,13.20
2022-08-19T08:19:48.261Z,15.70
2022-08-19T08:20:48.276Z,14.50
2022-08-19T08:21:48.257Z,15.00
2022-08-19T08:22:48.279Z,13.20
2022-08-19T08:23:48.543Z,15.20
2022-08-19T08:24:48.221Z,15.10
2022-08-19T08:25:49.267Z,14.70
2022-08-19T08:26:52.035Z,13.00
2022-08-19T08:27:48.203Z,10.80
2022-08-19T08:28:49.596Z,11.50
2022-08-19T08:29:48.164Z,15.40
2022-08-19T08:30:48.171Z,14.80
2022-08-19T08:31:48.133Z,14.90
2022-08-19T08:32:48.135Z,13.40
2022-08-19T08:33:48.112Z,15.30
2022-08-19T08:34:51.771Z,14.70
2022-08-19T08:35:48.116Z,13.60
2022-08-19T08:36:48.087Z,13.00
2022-08-19T08:37:49.852Z,11.70
2022-08-19T08:38:48.087Z,10.60
2022-08-19T08:39:48.408Z,10.10
2022-08-19T08:40:48.035Z,9.90
2022-08-19T08:41:48.052Z,9.20
2022-08-19T08:42:48.011Z,8.40
2022-08-19T08:43:48.007Z,7.80
2022-08-19T08:44:48.035Z,8.50
2022-08-19T08:45:53.533Z,8.50
2022-08-19T08:46:47.983Z,8.50
2022-08-19T08:47:47.981Z,8.50
2022-08-19T08:48:47.950Z,8.00
2022-08-19T08:49:47.937Z,8.40
2022-08-19T08:50:47.966Z,9.10
2022-08-19T08:51:47.956Z,9.00
2022-08-19T08:52:47.989Z,8.90
2022-08-19T08:53:47.905Z,9.60
2022-08-19T08:54:48.878Z,8.50
2022-08-19T08:55:47.875Z,8.90
2022-08-19T08:56:47.876Z,9.20
2022-08-19T08:57:47.913Z,10.00
2022-08-19T08:58:51.428Z,9.00
2022-08-19T08:59:47.836Z,8.20
2022-08-19T09:00:47.853Z,8.60
2022-08-19T09:01:47.834Z,9.00
2022-08-19T09:02:50.943Z,8.20
2022-08-19T09:03:47.793Z,8.80
2022-08-19T09:04:47.780Z,8.70
2022-08-19T09:05:48.573Z,8.40
2022-08-19T09:06:47.747Z,8.70
2022-08-19T09:07:47.798Z,8.80
2022-08-19T09:08:47.829Z,7.60
2022-08-19T09:09:47.729Z,7.80
2022-08-19T09:10:47.705Z,7.50
2022-08-19T09:11:47.726Z,6.30
2022-08-19T09:12:47.702Z,6.80
2022-08-19T09:13:47.670Z,6.70
2022-08-19T09:14:50.608Z,6.40
2022-08-19T09:15:47.669Z,6.20
2022-08-19T09:16:47.644Z,6.50
2022-08-19T09:17:50.157Z,6.30
2022-08-19T09:18:47.627Z,6.90
2022-08-19T09:19:47.611Z,7.40
2022-08-19T09:20:47.635Z,6.30
2022-08-19T09:21:47.590Z,6.90
2022-08-19T09:22:47.645Z,8.90
2022-08-19T09:23:47.568Z,7.50
2022-08-19T09:24:47.564Z,7.80
2022-08-19T09:25:47.582Z,8.20
2022-08-19T09:26:52.551Z,9.00
2022-08-19T09:27:47.542Z,7.40
2022-08-19T09:28:48.677Z,7.70
2022-08-19T09:29:47.507Z,7.90
2022-08-19T09:30:47.498Z,9.40
2022-08-19T09:31:47.505Z,9.90
2022-08-19T09:32:47.480Z,7.60
2022-08-19T09:33:47.470Z,8.40
2022-08-19T09:34:50.849Z,7.40
2022-08-19T09:35:49.745Z,7.70
2022-08-19T09:36:47.455Z,7.40
2022-08-19T09:37:47.425Z,7.50
2022-08-19T09:38:47.415Z,8.10
2022-08-19T09:39:47.439Z,6.90
2022-08-19T09:40:47.417Z,7.10
2022-08-19T09:41:49.147Z,7.40
2022-08-19T09:42:50.003Z,6.90
2022-08-19T09:43:47.987Z,7.00
2022-08-19T09:44:47.355Z,6.60
2022-08-19T09:45:47.335Z,6.00
2022-08-19T09:46:47.343Z,6.20
2022-08-19T09:47:47.391Z,6.20
2022-08-19T09:48:47.308Z,6.40
2022-08-19T09:49:47.292Z,7.10
2022-08-19T09:50:51.743Z,7.50
2022-08-19T09:51:51.077Z,7.10
2022-08-19T09:52:55.161Z,6.20
2022-08-19T09:53:47.258Z,7.00
2022-08-19T09:54:52.057Z,6.40
2022-08-19T09:55:47.268Z,7.10
2022-08-19T09:56:47.216Z,6.40
2022-08-19T09:57:47.271Z,5.80
2022-08-19T09:58:47.208Z,6.70
2022-08-19T09:59:47.187Z,6.00
2022-08-19T10:00:47.181Z,7.10
2022-08-19T10:01:47.279Z,7.10
2022-08-19T10:02:47.154Z,7.20
2022-08-19T10:03:47.147Z,7.00
2022-08-19T10:04:47.134Z,6.40
2022-08-19T10:05:48.650Z,6.20
2022-08-19T10:06:47.185Z,5.50
2022-08-19T10:07:47.108Z,5.50
2022-08-19T10:08:50.250Z,5.00
2022-08-19T10:09:47.072Z,4.90
2022-08-19T10:10:47.275Z,4.90
2022-08-19T10:11:54.611Z,4.70
2022-08-19T10:12:47.045Z,4.70
2022-08-19T10:13:47.026Z,5.20
2022-08-19T10:14:47.011Z,6.00
2022-08-19T10:15:48.040Z,6.30
2022-08-19T10:16:46.989Z,5.90
2022-08-19T10:17:48.228Z,5.40
2022-08-19T10:18:49.676Z,5.10
2022-08-19T10:19:55.166Z,5.20
2022-08-19T10:20:51.850Z,5.20
2022-08-19T10:21:46.963Z,5.00
2022-08-19T10:22:46.918Z,4.70
2022-08-19T10:23:46.933Z,4.60
2022-08-19T10:24:46.901Z,4.70
2022-08-19T10:25:46.927Z,4.50
2022-08-19T10:26:46.910Z,4.50
2022-08-19T10:27:51.440Z,4.60
2022-08-19T10:28:47.167Z,4.20
2022-08-19T10:29:46.856Z,4.20
2022-08-19T10:30:46.866Z,4.00
2022-08-19T10:32:00.689Z,4.00
2022-08-19T10:32:46.855Z,4.30
2022-08-19T10:33:53.849Z,4.40
2022-08-19T10:34:48.045Z,4.30
2022-08-19T10:35:57.535Z,4.10
2022-08-19T10:36:53.809Z,4.20
2022-08-19T10:37:56.729Z,4.00
2022-08-19T10:38:53.459Z,4.20
2022-08-19T10:39:46.814Z,4.00
2022-08-19T10:40:46.741Z,4.10
2022-08-19T10:41:46.754Z,4.20
2022-08-19T10:42:46.714Z,4.20
2022-08-19T10:43:46.711Z,4.10
2022-08-19T10:44:46.683Z,4.30
2022-08-19T10:45:52.636Z,4.70
2022-08-19T10:46:48.854Z,4.80
2022-08-19T10:47:46.650Z,4.30
2022-08-19T10:48:46.647Z,4.70
2022-08-19T10:49:46.630Z,4.50
2022-08-19T10:50:46.658Z,4.20
2022-08-19T10:51:47.914Z,4.10
2022-08-19T10:52:49.760Z,4.50
2022-08-19T10:53:46.596Z,4.70
2022-08-19T10:54:46.579Z,4.20
2022-08-19T10:55:46.560Z,4.30
2022-08-19T10:56:46.579Z,4.20
2022-08-19T10:58:01.817Z,4.50
2022-08-19T10:58:46.534Z,4.20
2022-08-19T10:59:46.519Z,4.60
2022-08-19T11:00:46.619Z,5.00
2022-08-19T11:01:46.518Z,4.50
2022-08-19T11:02:46.482Z,4.50
2022-08-19T11:03:46.466Z,5.10
2022-08-19T11:04:46.456Z,4.90
2022-08-19T11:05:46.468Z,5.30
2022-08-19T11:06:46.447Z,5.50
2022-08-19T11:07:46.418Z,5.00
2022-08-19T11:08:46.483Z,5.10
2022-08-19T11:09:46.405Z,4.70
2022-08-19T11:10:48.028Z,5.10
2022-08-19T11:11:46.371Z,5.00
2022-08-19T11:12:46.367Z,4.80
2022-08-19T11:13:46.352Z,4.40
2022-08-19T11:14:46.357Z,4.50
2022-08-19T11:15:46.363Z,4.50
2022-08-19T11:16:46.329Z,4.70
2022-08-19T11:17:46.309Z,4.70
2022-08-19T11:18:46.323Z,4.30
2022-08-19T11:19:46.303Z,4.70
2022-08-19T11:20:46.304Z,4.70
2022-08-19T11:21:46.271Z,4.50
2022-08-19T11:22:46.258Z,4.20
2022-08-19T11:23:46.247Z,4.50
2022-08-19T11:24:46.236Z,4.40
2022-08-19T11:25:46.219Z,4.30
2022-08-19T11:26:46.241Z,4.60
2022-08-19T11:27:46.217Z,4.60
2022-08-19T11:28:46.204Z,4.70
2022-08-19T11:29:46.181Z,4.80
2022-08-19T11:30:46.193Z,4.80
2022-08-19T11:31:46.158Z,4.80
2022-08-19T11:32:49.338Z,4.30
2022-08-19T11:33:46.141Z,5.10
2022-08-19T11:34:46.127Z,5.00
2022-08-19T11:35:46.141Z,5.40
2022-08-19T11:36:46.107Z,5.10
2022-08-19T11:37:46.129Z,5.20
2022-08-19T11:38:46.090Z,5.20
2022-08-19T11:39:46.111Z,5.70
2022-08-19T11:40:46.070Z,4.80
2022-08-19T11:41:46.081Z,5.00
2022-08-19T11:42:46.034Z,5.50
2022-08-19T11:43:46.037Z,5.90
2022-08-19T11:44:46.028Z,6.00
2022-08-19T11:45:46.027Z,6.60
2022-08-19T11:46:46.019Z,6.90
2022-08-19T11:47:45.994Z,7.40
2022-08-19T11:48:45.977Z,7.50
2022-08-19T11:49:45.974Z,8.20
2022-08-19T11:50:45.976Z,7.60
2022-08-19T11:51:45.949Z,8.40
2022-08-19T11:52:45.953Z,8.40
2022-08-19T11:53:45.927Z,7.70
2022-08-19T11:54:45.914Z,8.00
2022-08-19T11:55:45.909Z,8.50
2022-08-19T11:56:45.904Z,7.80
2022-08-19T11:57:45.883Z,7.30
2022-08-19T11:58:45.867Z,7.70
2022-08-19T11:59:45.887Z,7.60
2022-08-19T12:00:45.858Z,7.80
2022-08-19T12:01:45.843Z,7.30
2022-08-19T12:02:45.827Z,7.80
2022-08-19T12:03:45.858Z,8.10
2022-08-19T12:04:45.799Z,8.10
2022-08-19T12:05:45.820Z,9.00
2022-08-19T12:06:45.808Z,10.00
2022-08-19T12:07:45.777Z,9.80
2022-08-19T12:08:45.750Z,9.70
2022-08-19T12:09:45.987Z,8.70
2022-08-19T12:10:45.729Z,9.70
2022-08-19T12:11:45.761Z,9.90
2022-08-19T12:12:45.723Z,9.80
2022-08-19T12:13:45.713Z,9.80
2022-08-19T12:14:45.686Z,8.50
2022-08-19T12:15:45.692Z,10.10
2022-08-19T12:16:51.468Z,9.40
2022-08-19T12:17:45.656Z,8.70
2022-08-19T12:18:45.653Z,9.40
2022-08-19T12:19:45.627Z,8.50
2022-08-19T12:20:45.637Z,9.20
2022-08-19T12:21:45.621Z,9.00
2022-08-19T12:22:45.597Z,8.40
2022-08-19T12:23:45.603Z,8.00
2022-08-19T12:24:45.584Z,8.60
2022-08-19T12:25:45.576Z,7.50
2022-08-19T12:26:53.477Z,8.10
2022-08-19T12:27:52.871Z,8.50
2022-08-19T12:28:45.537Z,8.10
2022-08-19T12:29:45.535Z,8.40
2022-08-19T12:30:45.528Z,8.40
2022-08-19T12:31:45.512Z,7.80
2022-08-19T12:32:45.491Z,8.80
2022-08-19T12:33:45.484Z,8.60
2022-08-19T12:34:45.469Z,7.90
2022-08-19T12:35:45.835Z,8.30
2022-08-19T12:36:45.444Z,8.00
2022-08-19T12:37:45.441Z,7.40
2022-08-19T12:38:45.440Z,7.50
2022-08-19T12:39:45.460Z,7.70
2022-08-19T12:40:45.426Z,7.60
2022-08-19T12:41:54.803Z,7.70
2022-08-19T12:42:45.396Z,8.00
2022-08-19T12:43:45.373Z,6.90
2022-08-19T12:44:45.370Z,7.70
2022-08-19T12:45:45.386Z,7.30
2022-08-19T12:46:45.348Z,6.50
2022-08-19T12:47:45.376Z,6.80
2022-08-19T12:48:45.337Z,6.70
2022-08-19T12:49:54.042Z,6.60
2022-08-19T12:50:45.333Z,5.90
2022-08-19T12:51:45.289Z,6.40
2022-08-19T12:52:45.295Z,6.00
2022-08-19T12:53:45.269Z,5.60
2022-08-19T12:54:45.268Z,5.30
2022-08-19T12:55:45.240Z,5.50
2022-08-19T12:56:45.261Z,6.00
2022-08-19T12:57:45.242Z,6.30
2022-08-19T12:58:48.591Z,5.90
2022-08-19T12:59:45.213Z,6.50
2022-08-19T13:00:45.247Z,6.30
2022-08-19T13:01:45.182Z,6.60
2022-08-19T13:02:45.172Z,7.00